Apple Grove, West Virginia
Current Conditions -  °F | °C
As of 6:55 AM on Friday 24 Oct 2014 (Local Time) from K3I2 Reporting Station
Haze Haze  
Wind Chill: 39°   Ceiling: 100
Heat Index: 39°   Visibility: 1mi
Dew Point: 39°   Wind: 0mph
Humidity: 100%   Direction: NA
Pressure: 30.15"   Gusts: NA
Location:  38.66°N, 82.17°W
Report Text: K3I2 241055Z AUTO 00000KT 1SM BR OVC001 04/04 A3015 RMK AO2
Loading
Personal Weather Stations






























Interactive Weather Map
Tropical Storm Tracking
New forecast layout! Learn more

10-Day Weather Forecast

Advertisements
Track Severe Weather on mobile